LSMJ weather

Public forecast

Using degrees Celsius for public forecast. Weather courtesy of forecast.io.

Closest aviation weather report (METAR) to Turtman Air Base

Closest report is Sion Airport, 16.8 nm (31.2 km) WSW. Retrieved 2020/08/12 12:20 UTC (0 seconds ago):

LSGS 121220Z 23005KT 160V280 9999 SCT120TCU 32/15 Q1015

Closest aviation forecast (TAF) to Turtman Air Base

Closest forecast is Meiringen Airport, 31.1 nm (57.6 km) NNE. Retrieved 2020/08/12 10:00 UTC (2 hours ago):

TAF LSMM 120925Z 1210/1316 27005KT CAVOK BECMG 1210/1212 9999 FEW060 TEMPO 1212/1309 FEW060TCU PROB30 TEMPO 1214/1222 26015G25KT TSGR SCT050CB BKN060 TEMPO 1303/1316 SHRA SCT040TCU BKN050 PROB30 TEMPO 1303/1316 27015G25KT TSGR SCT045CB BKN050